createdAt,value
2019-03-19T00:06:58.036Z,2.40
2019-03-19T00:16:58.713Z,2.70
2019-03-19T00:26:59.648Z,2.00
2019-03-19T00:37:00.528Z,2.43
2019-03-19T00:47:01.177Z,2.03
2019-03-19T00:57:01.850Z,3.83
2019-03-19T01:07:02.529Z,5.13
2019-03-19T01:17:03.392Z,2.43
2019-03-19T01:27:04.129Z,2.10
2019-03-19T01:37:05.042Z,3.03
2019-03-19T01:47:05.935Z,2.30
2019-03-19T01:57:07.214Z,2.77
2019-03-19T02:07:07.874Z,2.10
2019-03-19T02:17:08.555Z,3.27
2019-03-19T02:27:09.239Z,2.53
2019-03-19T02:37:10.256Z,2.57
2019-03-19T02:47:11.130Z,3.10
2019-03-19T02:57:11.812Z,3.40
2019-03-19T03:07:12.729Z,5.57
2019-03-19T03:17:13.715Z,4.43
2019-03-19T03:27:14.599Z,4.60
2019-03-19T03:37:15.264Z,3.30
2019-03-19T03:47:15.940Z,3.07
2019-03-19T03:57:16.642Z,4.67
2019-03-19T04:07:17.312Z,5.40
2019-03-19T04:17:19.947Z,5.63
2019-03-19T04:27:20.851Z,4.77
2019-03-19T04:37:21.510Z,6.07
2019-03-19T04:47:22.140Z,4.73
2019-03-19T04:57:27.010Z,5.10
2019-03-19T05:07:26.147Z,6.07
2019-03-19T05:17:26.768Z,9.73
2019-03-19T05:27:37.000Z,8.47
2019-03-19T05:37:30.220Z,6.40
2019-03-19T05:47:37.048Z,6.20
2019-03-19T05:57:33.882Z,6.17
2019-03-19T06:07:34.521Z,5.57
2019-03-19T06:17:35.138Z,13.87
2019-03-19T06:27:35.799Z,8.47
2019-03-19T06:37:36.492Z,6.60
2019-03-19T06:47:37.156Z,6.30
2019-03-19T06:57:39.337Z,9.93
2019-03-19T07:07:40.280Z,9.87
2019-03-19T07:17:41.200Z,9.67
2019-03-19T07:27:41.935Z,8.00
2019-03-19T07:57:55.977Z,8.90
2019-03-19T09:51:25.356Z,4.57
2019-03-19T10:01:25.955Z,3.50
2019-03-19T10:31:40.458Z,2.80
2019-03-19T10:51:48.415Z,2.23
2019-03-19T11:01:51.431Z,1.87
2019-03-19T20:19:45.085Z,1.60
2019-03-19T20:29:46.834Z,1.23
2019-03-19T20:39:48.529Z,1.20
2019-03-19T20:49:49.557Z,1.17
2019-03-19T20:59:52.286Z,8.43
2019-03-19T21:09:59.994Z,5.47
2019-03-19T21:20:00.809Z,1.60
2019-03-19T21:30:06.623Z,2.37
2019-03-19T21:40:10.962Z,0.87
2019-03-19T21:50:14.312Z,1.07
2019-03-19T22:00:18.588Z,1.67
2019-03-19T22:10:20.110Z,1.80
2019-03-19T22:20:22.760Z,1.60
2019-03-19T22:30:24.682Z,1.20
2019-03-19T22:40:25.570Z,2.43
2019-03-19T22:50:30.362Z,2.50
2019-03-19T23:00:35.367Z,3.10
2019-03-19T23:10:37.391Z,3.17
2019-03-19T23:20:38.283Z,2.60
2019-03-19T23:30:39.101Z,2.70
2019-03-19T23:40:40.054Z,2.60
2019-03-19T23:50:40.782Z,2.57
